Time;durP1;ratioP1;P1;durP2;ratioP2;P2;SDS_P1;SDS_P2;PMS_P1;PMS_P2;Temp;Humidity;BMP_temperature;BMP_pressure;BME280_temperature;BME280_humidity;BME280_pressure;Samples;Min_cycle;Max_cycle;Signal;HPM_P1;HPM_P2
2023/07/08 00:00:23;;;;;;;2.53;2.33;;;;;;;;;;5042060;27;98357;-76
2023/07/08 00:02:52;;;;;;;2.80;2.58;;;;;;;;;;5038640;27;98597;-76
2023/07/08 00:05:20;;;;;;;3.05;2.45;;;;;;;;;;5036144;27;99248;-76
2023/07/08 00:07:47;;;;;;;4.47;2.28;;;;;;;;;;5035332;27;98215;-77
2023/07/08 00:10:19;;;;;;;3.35;2.25;;;;;;;;;;5034852;27;99592;-78
2023/07/08 00:12:48;;;;;;;7.32;2.63;;;;;;;;;;5034920;27;100219;-77
2023/07/08 00:15:16;;;;;;;14.27;2.70;;;;;;;;;;5043024;27;98282;-77
2023/07/08 00:17:42;;;;;;;4.47;2.75;;;;;;;;;;5041083;27;99136;-76
2023/07/08 00:20:11;;;;;;;2.15;1.92;;;;;;;;;;5034818;27;99295;-77
2023/07/08 00:22:40;;;;;;;2.67;2.55;;;;;;;;;;5028787;27;99444;-77
2023/07/08 00:25:07;;;;;;;2.45;2.25;;;;;;;;;;5029237;27;99185;-77
2023/07/08 00:27:34;;;;;;;2.40;2.20;;;;;;;;;;5048766;27;98444;-78
2023/07/08 00:30:00;;;;;;;5.35;2.53;;;;;;;;;;5049651;27;98464;-78
2023/07/08 00:32:27;;;;;;;4.25;2.33;;;;;;;;;;5049324;27;100021;-77
2023/07/08 00:34:53;;;;;;;2.67;2.40;;;;;;;;;;5050312;27;98167;-77
2023/07/08 00:37:20;;;;;;;2.88;2.38;;;;;;;;;;5051087;27;101467;-77
2023/07/08 00:39:46;;;;;;;6.90;2.28;;;;;;;;;;5049811;27;98209;-77
2023/07/08 00:42:17;;;;;;;2.50;2.30;;;;;;;;;;5050267;27;98961;-77
2023/07/08 00:44:44;;;;;;;3.08;2.80;;;;;;;;;;5050968;27;100126;-77
2023/07/08 00:47:12;;;;;;;4.47;2.72;;;;;;;;;;5051979;27;98402;-77
2023/07/08 00:49:57;;;;;;;3.95;3.00;;;;;;;;;;5053158;27;98224;-78
2023/07/08 00:52:26;;;;;;;2.65;2.45;;;;;;;;;;5052748;27;98668;-78
2023/07/08 00:54:58;;;;;;;3.95;2.42;;;;;;;;;;5051427;27;98139;-78
2023/07/08 00:57:29;;;;;;;2.55;2.38;;;;;;;;;;5054054;27;99911;-77
2023/07/08 00:59:59;;;;;;;3.38;2.30;;;;;;;;;;5053159;27;99302;-77
2023/07/08 01:02:27;;;;;;;5.90;2.67;;;;;;;;;;5051601;27;98503;-78
2023/07/08 01:05:12;;;;;;;2.67;2.47;;;;;;;;;;5050654;27;101989;-78
2023/07/08 01:07:41;;;;;;;4.78;3.00;;;;;;;;;;5053011;27;98466;-77
2023/07/08 01:10:12;;;;;;;3.10;2.90;;;;;;;;;;5052811;27;98719;-76
2023/07/08 01:12:42;;;;;;;5.13;3.00;;;;;;;;;;5050473;27;98943;-77
2023/07/08 01:15:09;;;;;;;2.88;2.50;;;;;;;;;;5053027;27;98218;-78
2023/07/08 01:17:36;;;;;;;7.60;2.22;;;;;;;;;;5051816;27;98743;-78
2023/07/08 01:20:06;;;;;;;3.30;2.25;;;;;;;;;;5055484;27;98922;-78
2023/07/08 01:22:36;;;;;;;6.22;2.30;;;;;;;;;;5051059;27;99018;-77
2023/07/08 01:25:04;;;;;;;3.88;2.58;;;;;;;;;;5051444;27;98854;-76
2023/07/08 01:27:32;;;;;;;3.35;2.38;;;;;;;;;;5052853;27;98490;-77
2023/07/08 01:30:01;;;;;;;3.13;2.70;;;;;;;;;;5044290;27;98423;-78
2023/07/08 01:32:27;;;;;;;7.43;2.80;;;;;;;;;;5039850;27;100801;-78
2023/07/08 01:35:02;;;;;;;2.65;2.42;;;;;;;;;;5042731;27;98171;-78
2023/07/08 01:37:30;;;;;;;2.75;2.55;;;;;;;;;;5035365;28;98624;-79
2023/07/08 01:39:56;;;;;;;6.13;3.45;;;;;;;;;;5046552;27;98933;-79
2023/07/08 01:42:25;;;;;;;3.80;2.63;;;;;;;;;;5071697;27;98343;-79
2023/07/08 01:44:52;;;;;;;3.03;2.80;;;;;;;;;;5051935;27;99881;-78
2023/07/08 01:47:20;;;;;;;2.75;2.47;;;;;;;;;;5049975;27;98224;-77
2023/07/08 01:49:47;;;;;;;22.45;3.13;;;;;;;;;;5048784;27;99420;-77
2023/07/08 01:52:14;;;;;;;2.80;2.60;;;;;;;;;;5049616;27;98666;-76
2023/07/08 01:54:41;;;;;;;9.02;2.78;;;;;;;;;;5049339;27;98340;-78
2023/07/08 01:57:08;;;;;;;2.80;2.55;;;;;;;;;;5049859;27;98936;-77
2023/07/08 01:59:35;;;;;;;2.53;2.33;;;;;;;;;;5048001;27;101258;-77
2023/07/08 02:02:03;;;;;;;2.65;2.40;;;;;;;;;;5048499;27;98448;-78
2023/07/08 02:04:30;;;;;;;3.13;2.28;;;;;;;;;;5053368;27;98522;-77
2023/07/08 02:06:58;;;;;;;2.67;2.45;;;;;;;;;;5050450;27;98686;-78
2023/07/08 02:09:26;;;;;;;4.55;2.40;;;;;;;;;;5051084;27;98323;-77
2023/07/08 02:11:53;;;;;;;3.65;2.40;;;;;;;;;;5050330;27;98864;-77
2023/07/08 02:14:19;;;;;;;5.47;2.85;;;;;;;;;;5050275;27;98288;-79
2023/07/08 02:16:46;;;;;;;2.92;2.75;;;;;;;;;;5048106;27;98261;-77
2023/07/08 02:19:13;;;;;;;3.03;2.80;;;;;;;;;;5048565;27;100957;-78
2023/07/08 02:21:39;;;;;;;3.20;2.63;;;;;;;;;;5049496;27;98264;-78
2023/07/08 02:24:08;;;;;;;3.28;2.95;;;;;;;;;;5048157;27;99511;-78
2023/07/08 02:26:36;;;;;;;2.92;2.55;;;;;;;;;;5051429;27;99242;-76
2023/07/08 02:29:02;;;;;;;3.28;3.03;;;;;;;;;;5047891;27;100343;-76
2023/07/08 02:31:30;;;;;;;5.43;2.53;;;;;;;;;;5049406;27;100235;-77
2023/07/08 02:33:56;;;;;;;2.72;2.53;;;;;;;;;;5050394;27;98334;-77
2023/07/08 02:36:23;;;;;;;4.63;2.92;;;;;;;;;;5049684;27;98389;-77
2023/07/08 02:38:50;;;;;;;4.95;2.88;;;;;;;;;;5049572;27;101368;-77
2023/07/08 02:41:18;;;;;;;7.63;2.55;;;;;;;;;;5050605;27;98594;-77
2023/07/08 02:43:44;;;;;;;6.28;2.92;;;;;;;;;;5048830;27;98385;-76
2023/07/08 02:46:11;;;;;;;3.75;2.47;;;;;;;;;;5050011;27;98651;-76
2023/07/08 02:48:38;;;;;;;4.82;2.55;;;;;;;;;;5052229;27;98148;-78
2023/07/08 02:51:08;;;;;;;4.63;2.80;;;;;;;;;;5047628;27;99975;-76
2023/07/08 02:53:38;;;;;;;5.15;2.80;;;;;;;;;;5048264;27;98285;-79
2023/07/08 02:56:04;;;;;;;5.82;2.80;;;;;;;;;;5049633;27;98372;-78
2023/07/08 02:58:34;;;;;;;3.13;2.80;;;;;;;;;;5048119;27;98837;-77
2023/07/08 03:01:06;;;;;;;3.20;2.90;;;;;;;;;;5031424;27;98234;-77
2023/07/08 03:03:34;;;;;;;4.97;2.63;;;;;;;;;;5051642;27;99727;-78
2023/07/08 03:06:02;;;;;;;5.07;2.80;;;;;;;;;;5035725;28;98886;-78
2023/07/08 03:08:29;;;;;;;4.95;2.67;;;;;;;;;;5036301;27;98289;-78
2023/07/08 03:10:58;;;;;;;3.15;2.70;;;;;;;;;;5027772;27;98899;-78
2023/07/08 03:13:25;;;;;;;6.63;3.95;;;;;;;;;;5028807;28;98272;-78
2023/07/08 03:15:55;;;;;;;4.40;3.20;;;;;;;;;;5011238;28;100788;-78
2023/07/08 03:18:23;;;;;;;5.63;2.53;;;;;;;;;;5043954;27;98741;-78
2023/07/08 03:20:53;;;;;;;2.67;2.47;;;;;;;;;;5031874;27;98293;-78
2023/07/08 03:23:19;;;;;;;8.95;2.95;;;;;;;;;;5031240;27;99638;-78
2023/07/08 03:25:48;;;;;;;2.78;2.63;;;;;;;;;;5047944;27;98819;-78
2023/07/08 03:28:15;;;;;;;4.60;2.90;;;;;;;;;;5047981;27;98392;-78
2023/07/08 03:30:43;;;;;;;8.77;2.95;;;;;;;;;;5040170;27;99652;-77
2023/07/08 03:33:11;;;;;;;9.18;3.15;;;;;;;;;;5043317;27;98687;-78
2023/07/08 03:35:40;;;;;;;7.15;2.83;;;;;;;;;;5026898;28;99476;-78
2023/07/08 03:38:06;;;;;;;4.60;2.80;;;;;;;;;;5033790;27;99859;-76
2023/07/08 03:40:33;;;;;;;2.83;2.63;;;;;;;;;;5047966;27;98694;-76
2023/07/08 03:42:59;;;;;;;7.07;2.75;;;;;;;;;;5049425;27;98342;-77
2023/07/08 03:45:29;;;;;;;5.50;3.05;;;;;;;;;;5047432;27;100870;-79
2023/07/08 03:47:56;;;;;;;5.63;2.80;;;;;;;;;;5048244;27;98350;-77
2023/07/08 03:50:24;;;;;;;5.35;2.92;;;;;;;;;;5045701;27;99466;-78
2023/07/08 03:52:52;;;;;;;5.55;3.10;;;;;;;;;;5051627;27;98894;-79
2023/07/08 03:55:21;;;;;;;2.70;2.50;;;;;;;;;;5047273;27;99773;-78
2023/07/08 03:57:47;;;;;;;4.30;3.08;;;;;;;;;;5046460;27;101166;-78
2023/07/08 04:00:16;;;;;;;2.88;2.25;;;;;;;;;;5046753;27;98346;-78
2023/07/08 04:02:45;;;;;;;2.88;2.67;;;;;;;;;;5046382;27;99327;-77
2023/07/08 04:05:19;;;;;;;3.20;2.88;;;;;;;;;;5047179;27;102041;-77
2023/07/08 04:07:46;;;;;;;4.13;2.45;;;;;;;;;;5045988;27;98737;-77
2023/07/08 04:10:15;;;;;;;3.20;2.90;;;;;;;;;;5046942;27;100249;-77
2023/07/08 04:12:41;;;;;;;4.25;3.20;;;;;;;;;;5047580;27;98890;-77
2023/07/08 04:15:09;;;;;;;5.32;2.92;;;;;;;;;;5050026;27;98818;-77
2023/07/08 04:17:47;;;;;;;8.25;2.72;;;;;;;;;;5047829;27;99848;-78
2023/07/08 04:20:16;;;;;;;3.97;2.70;;;;;;;;;;5048047;27;98328;-78
2023/07/08 04:22:42;;;;;;;3.10;2.90;;;;;;;;;;5047151;27;99637;-78
2023/07/08 04:25:10;;;;;;;4.78;3.03;;;;;;;;;;5048147;27;100417;-78
2023/07/08 04:27:38;;;;;;;2.85;2.50;;;;;;;;;;5047605;27;98263;-77
2023/07/08 04:30:04;;;;;;;5.07;2.70;;;;;;;;;;5046835;27;98389;-77
2023/07/08 04:32:31;;;;;;;6.95;2.95;;;;;;;;;;5047823;27;99231;-77
2023/07/08 04:34:58;;;;;;;4.03;2.72;;;;;;;;;;5047705;27;98306;-76
2023/07/08 04:37:24;;;;;;;2.97;2.35;;;;;;;;;;5050555;27;99324;-76
2023/07/08 04:39:51;;;;;;;4.90;2.47;;;;;;;;;;5047610;27;98240;-76
2023/07/08 04:42:17;;;;;;;4.07;3.00;;;;;;;;;;5046643;27;98637;-76
2023/07/08 04:44:44;;;;;;;3.38;3.08;;;;;;;;;;5047970;27;98958;-76
2023/07/08 04:47:13;;;;;;;3.30;3.00;;;;;;;;;;5047593;27;98255;-76
2023/07/08 04:49:40;;;;;;;8.95;3.00;;;;;;;;;;5046994;27;100075;-76
2023/07/08 04:52:07;;;;;;;4.75;2.92;;;;;;;;;;5046991;27;100494;-73
2023/07/08 04:54:33;;;;;;;4.40;2.75;;;;;;;;;;5047359;27;98342;-74
2023/07/08 04:57:00;;;;;;;3.78;2.60;;;;;;;;;;5046933;27;99308;-74
2023/07/08 04:59:26;;;;;;;3.28;3.00;;;;;;;;;;5050708;27;98209;-74
2023/07/08 05:01:53;;;;;;;3.80;2.90;;;;;;;;;;5047751;27;99488;-74
2023/07/08 05:04:21;;;;;;;9.50;2.50;;;;;;;;;;5048810;27;99923;-76
2023/07/08 05:06:48;;;;;;;7.78;2.83;;;;;;;;;;5049627;27;98367;-75
2023/07/08 05:09:15;;;;;;;4.72;2.78;;;;;;;;;;5050218;27;98511;-74
2023/07/08 05:11:43;;;;;;;3.92;3.20;;;;;;;;;;5047176;27;99876;-75
2023/07/08 05:14:11;;;;;;;5.47;2.88;;;;;;;;;;5047646;27;98285;-75
2023/07/08 05:16:38;;;;;;;2.70;2.50;;;;;;;;;;5046512;27;99513;-76
2023/07/08 05:19:05;;;;;;;3.83;3.10;;;;;;;;;;5049745;27;98896;-77
2023/07/08 05:21:33;;;;;;;4.00;2.67;;;;;;;;;;5047277;27;99577;-75
2023/07/08 05:24:02;;;;;;;6.55;2.90;;;;;;;;;;5048172;27;98894;-74
2023/07/08 05:26:28;;;;;;;4.20;3.13;;;;;;;;;;5046456;27;98838;-74
2023/07/08 05:28:55;;;;;;;3.10;2.90;;;;;;;;;;5046230;27;98565;-76
2023/07/08 05:31:21;;;;;;;3.28;2.70;;;;;;;;;;5037845;27;99061;-73
2023/07/08 05:33:54;;;;;;;2.92;2.72;;;;;;;;;;5030581;28;98645;-71
2023/07/08 05:36:21;;;;;;;2.90;2.60;;;;;;;;;;5030676;27;99516;-73
2023/07/08 05:38:48;;;;;;;2.80;2.60;;;;;;;;;;5048618;27;98977;-73
2023/07/08 05:41:14;;;;;;;2.50;2.30;;;;;;;;;;5053366;27;98210;-73
2023/07/08 05:43:40;;;;;;;3.00;2.80;;;;;;;;;;5050119;27;100143;-74
2023/07/08 05:46:08;;;;;;;3.20;3.00;;;;;;;;;;5050118;27;98463;-74
2023/07/08 05:48:38;;;;;;;2.90;2.70;;;;;;;;;;5050337;27;100518;-74
2023/07/08 05:51:05;;;;;;;3.33;2.55;;;;;;;;;;5047143;27;99911;-74
2023/07/08 05:53:31;;;;;;;9.35;2.85;;;;;;;;;;5049465;27;98815;-74
2023/07/08 05:55:58;;;;;;;4.10;2.88;;;;;;;;;;5050136;27;99386;-74
2023/07/08 05:58:24;;;;;;;2.83;2.72;;;;;;;;;;5050264;27;99879;-73
2023/07/08 06:00:59;;;;;;;2.75;2.55;;;;;;;;;;5049668;27;98815;-74
2023/07/08 06:03:26;;;;;;;6.07;2.65;;;;;;;;;;5053333;27;99475;-74
2023/07/08 06:05:53;;;;;;;4.30;3.10;;;;;;;;;;5049960;27;98999;-74
2023/07/08 06:08:20;;;;;;;3.25;2.70;;;;;;;;;;5049513;27;99369;-74
2023/07/08 06:10:46;;;;;;;6.95;2.53;;;;;;;;;;5049752;27;99871;-74
2023/07/08 06:13:13;;;;;;;8.95;2.40;;;;;;;;;;5050179;27;98508;-74
2023/07/08 06:15:39;;;;;;;3.05;2.47;;;;;;;;;;5048341;27;98118;-74
2023/07/08 06:18:06;;;;;;;2.45;2.25;;;;;;;;;;5049942;27;100177;-74
2023/07/08 06:20:33;;;;;;;3.65;2.40;;;;;;;;;;5049500;27;98225;-74
2023/07/08 06:22:59;;;;;;;3.03;2.60;;;;;;;;;;5049625;27;98372;-74
2023/07/08 06:25:26;;;;;;;5.47;2.25;;;;;;;;;;5053056;27;99877;-75
2023/07/08 06:27:52;;;;;;;3.75;2.38;;;;;;;;;;5049163;27;99821;-74
2023/07/08 06:30:21;;;;;;;2.50;2.30;;;;;;;;;;5048883;27;98949;-74
2023/07/08 06:32:47;;;;;;;2.10;2.00;;;;;;;;;;5049376;27;98248;-74
2023/07/08 06:35:14;;;;;;;4.38;3.13;;;;;;;;;;5049276;27;99362;-74
2023/07/08 06:37:41;;;;;;;11.98;2.50;;;;;;;;;;5049036;27;99052;-74
2023/07/08 06:40:08;;;;;;;4.93;2.30;;;;;;;;;;5050268;27;98645;-74
2023/07/08 06:42:34;;;;;;;8.05;2.63;;;;;;;;;;5047568;27;98430;-74
2023/07/08 06:45:14;;;;;;;2.28;2.10;;;;;;;;;;5041431;27;101301;-74
2023/07/08 06:47:41;;;;;;;4.75;2.70;;;;;;;;;;5041479;27;98214;-74
2023/07/08 06:50:07;;;;;;;6.13;2.90;;;;;;;;;;5048492;27;99821;-74
2023/07/08 06:52:35;;;;;;;2.42;2.22;;;;;;;;;;5036843;27;98447;-74
2023/07/08 06:55:02;;;;;;;3.40;2.75;;;;;;;;;;5028268;28;99480;-74
2023/07/08 06:57:31;;;;;;;6.68;2.13;;;;;;;;;;5027348;27;99226;-74
2023/07/08 06:59:58;;;;;;;7.45;2.25;;;;;;;;;;5031780;27;98276;-74
2023/07/08 07:02:24;;;;;;;2.20;2.00;;;;;;;;;;5048688;27;99751;-74
2023/07/08 07:04:53;;;;;;;2.60;1.95;;;;;;;;;;5047384;27;99934;-75
2023/07/08 07:07:19;;;;;;;1.90;1.80;;;;;;;;;;5052501;27;98253;-76
2023/07/08 07:09:45;;;;;;;6.05;2.53;;;;;;;;;;5048882;27;100161;-75
2023/07/08 07:12:13;;;;;;;2.15;2.05;;;;;;;;;;5048813;27;98716;-75
2023/07/08 07:14:42;;;;;;;4.10;2.10;;;;;;;;;;5049226;27;99391;-76
2023/07/08 07:17:12;;;;;;;3.20;2.20;;;;;;;;;;5045015;27;99029;-75
2023/07/08 07:19:38;;;;;;;2.75;1.90;;;;;;;;;;5047617;27;98320;-75
2023/07/08 07:22:06;;;;;;;5.45;2.13;;;;;;;;;;5051335;27;99047;-77
2023/07/08 07:24:33;;;;;;;3.35;2.38;;;;;;;;;;5048017;27;98558;-77
2023/07/08 07:26:59;;;;;;;2.40;2.20;;;;;;;;;;5047348;27;98596;-77
2023/07/08 07:29:26;;;;;;;2.20;2.10;;;;;;;;;;5051031;27;99229;-77
2023/07/08 07:31:52;;;;;;;4.97;2.38;;;;;;;;;;5047380;27;98089;-78
2023/07/08 07:34:19;;;;;;;2.58;2.38;;;;;;;;;;5048459;27;98798;-77
2023/07/08 07:36:45;;;;;;;3.10;2.20;;;;;;;;;;5048327;27;99044;-78
2023/07/08 07:39:12;;;;;;;11.20;2.28;;;;;;;;;;5047887;27;99072;-76
2023/07/08 07:41:39;;;;;;;2.90;2.60;;;;;;;;;;5036282;27;99398;-77
2023/07/08 07:44:06;;;;;;;2.40;2.25;;;;;;;;;;5027726;27;100051;-76
2023/07/08 07:46:32;;;;;;;12.65;2.60;;;;;;;;;;5040472;27;98246;-75
2023/07/08 07:48:59;;;;;;;2.97;2.25;;;;;;;;;;5048526;27;99631;-77
2023/07/08 07:51:27;;;;;;;3.60;2.53;;;;;;;;;;5041536;27;99165;-77
2023/07/08 07:53:53;;;;;;;2.63;2.50;;;;;;;;;;5035607;27;99542;-77
2023/07/08 07:56:19;;;;;;;3.50;2.58;;;;;;;;;;5046963;27;99593;-77
2023/07/08 07:58:46;;;;;;;2.53;2.33;;;;;;;;;;5047970;27;98495;-77
2023/07/08 08:01:15;;;;;;;7.05;2.65;;;;;;;;;;5048014;27;99485;-77
2023/07/08 08:03:42;;;;;;;5.93;2.20;;;;;;;;;;5045380;27;98790;-76
2023/07/08 08:06:08;;;;;;;2.22;2.10;;;;;;;;;;5044758;27;98449;-73
2023/07/08 08:08:35;;;;;;;2.85;2.20;;;;;;;;;;5046124;27;99042;-77
2023/07/08 08:11:04;;;;;;;7.38;2.40;;;;;;;;;;5046893;27;100494;-78
2023/07/08 08:13:30;;;;;;;7.43;2.35;;;;;;;;;;5038159;27;98242;-76
2023/07/08 08:15:57;;;;;;;3.47;2.47;;;;;;;;;;5045794;27;99930;-77
2023/07/08 08:18:25;;;;;;;2.72;2.50;;;;;;;;;;5048013;27;98246;-78
2023/07/08 08:20:52;;;;;;;6.35;2.13;;;;;;;;;;5044954;27;98273;-76
2023/07/08 08:23:19;;;;;;;2.80;2.60;;;;;;;;;;5045975;27;99815;-76
2023/07/08 08:25:46;;;;;;;3.80;2.65;;;;;;;;;;5045945;27;98213;-76
2023/07/08 08:28:12;;;;;;;2.75;2.20;;;;;;;;;;5045299;27;98777;-77
2023/07/08 08:30:39;;;;;;;3.88;2.47;;;;;;;;;;5047194;27;98955;-77
2023/07/08 08:33:08;;;;;;;8.82;2.40;;;;;;;;;;5045657;27;98168;-75
2023/07/08 08:35:34;;;;;;;3.22;2.60;;;;;;;;;;5042816;27;98583;-76
2023/07/08 08:38:02;;;;;;;7.65;2.40;;;;;;;;;;5047795;27;98305;-74
2023/07/08 08:40:30;;;;;;;2.80;2.50;;;;;;;;;;5047848;27;99436;-72
2023/07/08 08:43:04;;;;;;;5.50;2.92;;;;;;;;;;5046837;27;98890;-74
2023/07/08 08:45:34;;;;;;;3.65;2.70;;;;;;;;;;5038529;27;98171;-74
2023/07/08 08:48:01;;;;;;;3.13;2.88;;;;;;;;;;5039589;27;99606;-75
2023/07/08 08:50:31;;;;;;;4.10;3.22;;;;;;;;;;5041757;27;100811;-74
2023/07/08 08:52:59;;;;;;;3.70;2.65;;;;;;;;;;5038302;27;98424;-74
2023/07/08 08:55:26;;;;;;;4.55;2.88;;;;;;;;;;5046645;27;98379;-74
2023/07/08 08:58:12;;;;;;;2.72;2.45;;;;;;;;;;5042971;27;99216;-75
2023/07/08 09:00:48;;;;;;;4.53;2.58;;;;;;;;;;5027142;27;99632;-74
2023/07/08 09:03:16;;;;;;;3.05;2.72;;;;;;;;;;5035177;27;100088;-75
2023/07/08 09:05:44;;;;;;;2.92;2.72;;;;;;;;;;5046606;27;98828;-74
2023/07/08 09:08:13;;;;;;;2.65;2.45;;;;;;;;;;5051132;27;98220;-75
2023/07/08 09:10:47;;;;;;;7.78;2.83;;;;;;;;;;5049994;27;100211;-75
2023/07/08 09:13:17;;;;;;;3.50;2.83;;;;;;;;;;5051093;27;98274;-76
2023/07/08 09:15:44;;;;;;;4.50;2.97;;;;;;;;;;5049884;27;99517;-74
2023/07/08 09:18:19;;;;;;;7.75;2.63;;;;;;;;;;5053473;27;100134;-74
2023/07/08 09:20:47;;;;;;;3.58;3.25;;;;;;;;;;5050701;27;99391;-74
2023/07/08 09:23:25;;;;;;;3.83;2.80;;;;;;;;;;5044326;27;100183;-74
2023/07/08 09:26:07;;;;;;;5.25;2.90;;;;;;;;;;5047519;27;99044;-74
2023/07/08 09:28:37;;;;;;;7.72;3.38;;;;;;;;;;5050768;27;99642;-74
2023/07/08 09:31:06;;;;;;;3.85;3.45;;;;;;;;;;5046617;27;99945;-74
2023/07/08 09:33:34;;;;;;;3.40;3.10;;;;;;;;;;5030306;27;98229;-75
2023/07/08 09:36:00;;;;;;;4.95;3.33;;;;;;;;;;5032382;27;98846;-74
2023/07/08 09:38:27;;;;;;;5.30;3.17;;;;;;;;;;5044425;27;100311;-74
2023/07/08 09:40:56;;;;;;;10.50;3.50;;;;;;;;;;5040088;27;98473;-75
2023/07/08 09:43:36;;;;;;;3.60;3.30;;;;;;;;;;5048521;27;100214;-75
2023/07/08 09:46:03;;;;;;;12.00;3.55;;;;;;;;;;5048118;27;98297;-75
2023/07/08 09:48:33;;;;;;;3.72;3.42;;;;;;;;;;5046986;27;98847;-75
2023/07/08 09:51:00;;;;;;;3.10;2.90;;;;;;;;;;5045646;27;99033;-73
2023/07/08 09:53:27;;;;;;;3.80;3.40;;;;;;;;;;5048490;27;98568;-78
2023/07/08 09:55:56;;;;;;;6.93;3.55;;;;;;;;;;5049731;27;98458;-76
2023/07/08 09:58:30;;;;;;;3.78;3.40;;;;;;;;;;5050176;27;100334;-76
2023/07/08 10:01:08;;;;;;;4.57;3.50;;;;;;;;;;5040082;27;98318;-76
2023/07/08 10:03:35;;;;;;;4.35;3.97;;;;;;;;;;5046829;27;98644;-76
2023/07/08 10:06:10;;;;;;;7.05;3.53;;;;;;;;;;5050040;27;98929;-76
2023/07/08 10:08:41;;;;;;;5.43;3.55;;;;;;;;;;5049394;27;98630;-76
2023/07/08 10:11:13;;;;;;;4.63;4.22;;;;;;;;;;5050241;27;100186;-76
2023/07/08 10:13:41;;;;;;;5.78;3.65;;;;;;;;;;5048446;27;98255;-76
2023/07/08 10:16:08;;;;;;;5.72;4.00;;;;;;;;;;5048690;27;99964;-75
2023/07/08 10:18:34;;;;;;;4.68;4.22;;;;;;;;;;5047551;27;99809;-76
2023/07/08 10:21:13;;;;;;;4.38;4.05;;;;;;;;;;5029367;27;98815;-76
2023/07/08 10:23:47;;;;;;;4.10;3.80;;;;;;;;;;5029491;27;99376;-76
2023/07/08 10:26:13;;;;;;;4.65;4.25;;;;;;;;;;5032809;27;99734;-76
2023/07/08 10:28:44;;;;;;;6.40;4.07;;;;;;;;;;5028572;27;98761;-76
2023/07/08 10:31:20;;;;;;;8.80;4.10;;;;;;;;;;5030002;27;99812;-76
2023/07/08 10:33:59;;;;;;;4.75;4.30;;;;;;;;;;5049014;27;98485;-75
2023/07/08 10:36:36;;;;;;;11.35;4.30;;;;;;;;;;5049707;27;98718;-74
2023/07/08 10:39:21;;;;;;;9.05;4.78;;;;;;;;;;5034603;27;99203;-74
2023/07/08 10:41:54;;;;;;;6.28;4.40;;;;;;;;;;5028867;28;98105;-74
2023/07/08 10:44:30;;;;;;;5.18;4.68;;;;;;;;;;5029501;27;99510;-74
2023/07/08 10:47:22;;;;;;;7.03;4.47;;;;;;;;;;5033036;27;99845;-74
2023/07/08 10:49:51;;;;;;;7.47;4.82;;;;;;;;;;5050517;27;98586;-75
2023/07/08 10:52:30;;;;;;;6.15;4.70;;;;;;;;;;5046961;27;99884;-74
2023/07/08 10:55:15;;;;;;;7.00;4.50;;;;;;;;;;5049404;27;98252;-75
2023/07/08 10:57:42;;;;;;;7.32;4.88;;;;;;;;;;5049316;27;98685;-74
2023/07/08 11:00:08;;;;;;;6.50;4.53;;;;;;;;;;5048962;27;98962;-74
2023/07/08 11:02:53;;;;;;;6.93;4.93;;;;;;;;;;5047302;27;98247;-74
2023/07/08 11:05:31;;;;;;;7.38;4.90;;;;;;;;;;5048676;27;98489;-74
2023/07/08 11:08:18;;;;;;;4.85;4.45;;;;;;;;;;5049154;27;98905;-71
2023/07/08 11:10:51;;;;;;;6.55;4.47;;;;;;;;;;5038334;27;98231;-71
2023/07/08 11:13:41;;;;;;;6.72;4.90;;;;;;;;;;5031442;27;98801;-70
2023/07/08 11:16:15;;;;;;;5.05;4.65;;;;;;;;;;5027462;27;98560;-71
2023/07/08 11:19:11;;;;;;;5.68;5.10;;;;;;;;;;5028193;27;98473;-70
2023/07/08 11:21:45;;;;;;;4.72;4.38;;;;;;;;;;5007142;27;99782;-72
2023/07/08 11:24:18;;;;;;;4.95;4.50;;;;;;;;;;5028214;28;98245;-69
2023/07/08 11:26:51;;;;;;;7.97;5.28;;;;;;;;;;5028348;27;99382;-70
2023/07/08 11:29:19;;;;;;;5.47;4.85;;;;;;;;;;5041440;27;99478;-69
2023/07/08 11:31:46;;;;;;;7.72;4.72;;;;;;;;;;5047236;27;98227;-69
2023/07/08 11:34:13;;;;;;;7.65;4.38;;;;;;;;;;5051932;27;98526;-69
2023/07/08 11:36:40;;;;;;;5.25;4.85;;;;;;;;;;5048547;27;98186;-70
2023/07/08 11:39:26;;;;;;;9.90;5.25;;;;;;;;;;5047682;27;98766;-72
2023/07/08 11:42:04;;;;;;;4.50;4.15;;;;;;;;;;5048666;27;99786;-73
2023/07/08 11:44:32;;;;;;;5.63;5.13;;;;;;;;;;5047562;27;98873;-72
2023/07/08 11:46:59;;;;;;;12.95;4.95;;;;;;;;;;5045281;27;98889;-73
2023/07/08 11:49:25;;;;;;;6.32;5.05;;;;;;;;;;5044195;27;99506;-73
2023/07/08 11:51:54;;;;;;;13.27;4.47;;;;;;;;;;5043402;27;98297;-73
2023/07/08 11:54:29;;;;;;;7.30;4.35;;;;;;;;;;5038906;27;98697;-72
2023/07/08 11:56:55;;;;;;;5.97;4.80;;;;;;;;;;5047377;27;99802;-72
2023/07/08 11:59:23;;;;;;;7.10;4.68;;;;;;;;;;5048073;27;98564;-73
2023/07/08 12:01:54;;;;;;;7.22;4.70;;;;;;;;;;5048350;27;99892;-72
2023/07/08 12:04:20;;;;;;;;;;;;;;;;;;5047267;27;98805;-72
2023/07/08 12:06:48;;;;;;;10.77;4.82;;;;;;;;;;5046004;27;127452;-72
2023/07/08 12:09:30;;;;;;;7.60;4.63;;;;;;;;;;5047486;27;99063;-72
2023/07/08 12:12:00;;;;;;;8.55;4.90;;;;;;;;;;5047938;27;98265;-72
2023/07/08 12:14:28;;;;;;;5.30;4.80;;;;;;;;;;5047953;27;99484;-73
2023/07/08 12:16:55;;;;;;;6.28;5.00;;;;;;;;;;5047695;27;98886;-73
2023/07/08 12:19:22;;;;;;;7.70;4.85;;;;;;;;;;5049693;27;98254;-73
2023/07/08 12:21:48;;;;;;;11.30;5.35;;;;;;;;;;5044283;27;99965;-72
2023/07/08 12:24:17;;;;;;;7.70;4.65;;;;;;;;;;5046735;27;98198;-74
2023/07/08 12:26:43;;;;;;;5.28;4.78;;;;;;;;;;5046747;27;98554;-73
2023/07/08 12:29:13;;;;;;;6.47;4.78;;;;;;;;;;5047988;27;99896;-73
2023/07/08 12:31:42;;;;;;;5.45;4.97;;;;;;;;;;5045106;27;98268;-73
2023/07/08 12:34:13;;;;;;;5.18;4.68;;;;;;;;;;5028999;27;99790;-73
2023/07/08 12:36:40;;;;;;;;;;;;;;;;;;5042118;27;98926;-73
2023/07/08 12:39:09;;;;;;;7.43;4.97;;;;;;;;;;5046858;27;104259;-73
2023/07/08 12:41:35;;;;;;;5.20;4.80;;;;;;;;;;5049690;27;98786;-73
2023/07/08 12:44:14;;;;;;;10.93;4.63;;;;;;;;;;5044964;27;99361;-73
2023/07/08 12:46:40;;;;;;;7.40;5.05;;;;;;;;;;5035313;27;98439;-73
2023/07/08 12:49:08;;;;;;;9.05;4.90;;;;;;;;;;5048320;27;100151;-73
2023/07/08 12:51:34;;;;;;;7.65;4.90;;;;;;;;;;5049018;27;98414;-73
2023/07/08 12:54:01;;;;;;;5.05;4.40;;;;;;;;;;5048785;27;99572;-72
2023/07/08 12:56:27;;;;;;;4.93;4.53;;;;;;;;;;5048745;27;99985;-73
2023/07/08 12:58:55;;;;;;;7.07;5.07;;;;;;;;;;5051300;27;98287;-72
2023/07/08 13:01:25;;;;;;;4.93;4.53;;;;;;;;;;5050444;27;99560;-73
2023/07/08 13:03:56;;;;;;;8.43;5.00;;;;;;;;;;5063249;27;99195;-73
2023/07/08 13:06:25;;;;;;;6.63;4.70;;;;;;;;;;5050493;27;99654;-73
2023/07/08 13:08:52;;;;;;;5.07;4.60;;;;;;;;;;5049852;27;99381;-73
2023/07/08 13:11:20;;;;;;;5.30;4.80;;;;;;;;;;5050338;27;98321;-73
2023/07/08 13:14:06;;;;;;;4.88;4.47;;;;;;;;;;5049650;27;99425;-73
2023/07/08 13:16:34;;;;;;;5.30;4.80;;;;;;;;;;5047263;27;98986;-73
2023/07/08 13:19:02;;;;;;;6.88;5.05;;;;;;;;;;5050613;27;98262;-73
2023/07/08 13:21:30;;;;;;;5.80;5.10;;;;;;;;;;5049095;27;99517;-73
2023/07/08 13:23:57;;;;;;;5.03;4.53;;;;;;;;;;5049872;27;100662;-74
2023/07/08 13:26:28;;;;;;;11.35;4.80;;;;;;;;;;5054325;27;99267;-74
2023/07/08 13:29:04;;;;;;;10.38;5.15;;;;;;;;;;5050578;27;99499;-73
2023/07/08 13:31:34;;;;;;;5.07;4.68;;;;;;;;;;5050542;27;98464;-74
2023/07/08 13:34:06;;;;;;;6.07;4.43;;;;;;;;;;5048500;27;99792;-73
2023/07/08 13:36:33;;;;;;;7.05;4.38;;;;;;;;;;5043550;27;98982;-73
2023/07/08 13:39:08;;;;;;;7.78;4.85;;;;;;;;;;5049706;27;98909;-73
2023/07/08 13:41:35;;;;;;;5.55;4.95;;;;;;;;;;5045450;27;99687;-73
2023/07/08 13:44:05;;;;;;;6.05;4.53;;;;;;;;;;5044278;27;99488;-73
2023/07/08 13:46:39;;;;;;;8.27;4.22;;;;;;;;;;5053500;27;99339;-73
2023/07/08 13:49:14;;;;;;;7.22;4.80;;;;;;;;;;5050421;27;98940;-73
2023/07/08 13:51:41;;;;;;;6.22;4.30;;;;;;;;;;5048677;27;98126;-74
2023/07/08 13:54:13;;;;;;;4.55;4.25;;;;;;;;;;5036459;27;99758;-73
2023/07/08 13:56:40;;;;;;;7.47;4.63;;;;;;;;;;5028731;27;99144;-73
2023/07/08 13:59:08;;;;;;;9.70;4.40;;;;;;;;;;5039530;27;98674;-73
2023/07/08 14:01:36;;;;;;;6.60;4.63;;;;;;;;;;5046547;27;99067;-72
2023/07/08 14:04:03;;;;;;;11.07;4.10;;;;;;;;;;5049327;27;99919;-73
2023/07/08 14:06:31;;;;;;;7.68;4.45;;;;;;;;;;5049081;27;98251;-73
2023/07/08 14:09:06;;;;;;;5.07;4.55;;;;;;;;;;5053194;27;98807;-73
2023/07/08 14:11:32;;;;;;;5.38;4.43;;;;;;;;;;5049911;27;98572;-73
2023/07/08 14:13:59;;;;;;;6.45;4.30;;;;;;;;;;5047679;27;99681;-73
2023/07/08 14:16:27;;;;;;;6.55;4.60;;;;;;;;;;5045288;27;98764;-72
2023/07/08 14:18:55;;;;;;;6.72;4.03;;;;;;;;;;5048621;27;98248;-73
2023/07/08 14:21:21;;;;;;;6.60;4.97;;;;;;;;;;5032173;27;99371;-73
2023/07/08 14:23:49;;;;;;;5.28;4.40;;;;;;;;;;5046079;27;98888;-72
2023/07/08 14:26:16;;;;;;;4.85;4.40;;;;;;;;;;5047433;27;98206;-73
2023/07/08 14:28:42;;;;;;;4.93;4.18;;;;;;;;;;5049749;27;99389;-73
2023/07/08 14:31:10;;;;;;;4.95;4.55;;;;;;;;;;5050069;27;98887;-73
2023/07/08 14:33:37;;;;;;;4.90;4.40;;;;;;;;;;5046220;27;99556;-73
2023/07/08 14:36:07;;;;;;;4.45;4.05;;;;;;;;;;5046815;27;99537;-72
2023/07/08 14:38:33;;;;;;;4.22;3.92;;;;;;;;;;5049793;27;98852;-72
2023/07/08 14:41:00;;;;;;;5.95;3.60;;;;;;;;;;5037716;27;99970;-72
2023/07/08 14:43:28;;;;;;;7.93;4.18;;;;;;;;;;5029678;27;100443;-73
2023/07/08 14:45:55;;;;;;;4.07;3.78;;;;;;;;;;5029685;28;98379;-73
2023/07/08 14:48:23;;;;;;;4.32;3.92;;;;;;;;;;5040221;27;99953;-73
2023/07/08 14:50:52;;;;;;;11.10;4.28;;;;;;;;;;5043747;27;99173;-73